Time;durP1;ratioP1;P1;durP2;ratioP2;P2;SDS_P1;SDS_P2;PMS_P1;PMS_P2;Temp;Humidity;BMP_temperature;BMP_pressure;BME280_temperature;BME280_humidity;BME280_pressure;Samples;Min_cycle;Max_cycle;Signal;HPM_P1;HPM_P2
2022/09/30 00:01:35;;;;;;;1.83;1.67;;;12.70;99.90;;;;;;5061402;28;20227;-76
2022/09/30 00:04:03;;;;;;;4.82;1.63;;;12.70;99.90;;;;;;5061878;28;20291;-75
2022/09/30 00:06:31;;;;;;;1.75;1.65;;;12.70;99.90;;;;;;5066510;28;20198;-76
2022/09/30 00:08:59;;;;;;;1.55;1.45;;;12.70;99.90;;;;;;5066013;28;20217;-75
2022/09/30 00:11:28;;;;;;;1.85;1.75;;;12.60;99.90;;;;;;5067261;28;20217;-75
2022/09/30 00:13:58;;;;;;;1.38;1.30;;;12.50;99.90;;;;;;5062579;28;20218;-75
2022/09/30 00:16:27;;;;;;;1.67;1.33;;;12.50;99.90;;;;;;5063583;28;20198;-76
2022/09/30 00:18:55;;;;;;;1.58;1.40;;;12.40;99.90;;;;;;5065758;28;20218;-75
2022/09/30 00:21:23;;;;;;;1.50;1.40;;;12.30;99.90;;;;;;5066955;28;20210;-75
2022/09/30 00:23:51;;;;;;;1.40;1.30;;;12.30;99.90;;;;;;5064301;28;20684;-75
2022/09/30 00:26:20;;;;;;;1.33;1.30;;;12.30;99.90;;;;;;5063754;28;20195;-76
2022/09/30 00:28:51;;;;;;;1.20;1.20;;;12.30;99.90;;;;;;5070053;28;20228;-74
2022/09/30 00:31:20;;;;;;;1.27;1.27;;;12.30;99.90;;;;;;5065443;28;20210;-76
2022/09/30 00:34:05;;;;;;;1.40;1.30;;;12.30;99.90;;;;;;5065969;28;20214;-74
2022/09/30 00:36:33;;;;;;;1.20;1.20;;;12.30;99.90;;;;;;5061527;28;20202;-76
2022/09/30 00:39:00;;;;;;;1.38;1.33;;;12.40;99.90;;;;;;5065825;28;20783;-75
2022/09/30 00:41:27;;;;;;;2.05;1.33;;;12.30;99.90;;;;;;5066220;28;20243;-76
2022/09/30 00:43:54;;;;;;;1.30;1.30;;;12.30;99.90;;;;;;5075522;28;20802;-75
2022/09/30 00:46:29;;;;;;;1.33;1.23;;;12.40;99.90;;;;;;5065306;28;20198;-75
2022/09/30 00:49:02;;;;;;;1.65;1.55;;;12.40;99.90;;;;;;5063653;28;20836;-75
2022/09/30 00:51:33;;;;;;;1.70;1.60;;;12.40;99.90;;;;;;5067063;28;20700;-75
2022/09/30 00:54:02;;;;;;;1.55;1.45;;;12.40;99.90;;;;;;5064769;28;20214;-75
2022/09/30 00:56:34;;;;;;;1.17;1.17;;;12.40;99.90;;;;;;5063089;28;20191;-76
2022/09/30 00:59:06;;;;;;;1.48;1.48;;;12.30;99.90;;;;;;5063322;28;20214;-75
2022/09/30 01:01:36;;;;;;;1.50;1.40;;;12.30;99.90;;;;;;5065590;28;20218;-75
2022/09/30 01:04:10;;;;;;;1.40;1.30;;;12.30;99.90;;;;;;5064508;28;20502;-76
2022/09/30 01:06:37;;;;;;;1.40;1.30;;;12.30;99.90;;;;;;5062411;28;20259;-75
2022/09/30 01:09:04;;;;;;;1.75;1.40;;;12.30;99.90;;;;;;5066058;28;20218;-76
2022/09/30 01:11:31;;;;;;;2.13;1.35;;;12.40;99.90;;;;;;5063189;28;20210;-76
2022/09/30 01:14:02;;;;;;;2.03;1.92;;;12.40;99.90;;;;;;5064250;28;20255;-75
2022/09/30 01:17:00;;;;;;;1.52;1.50;;;12.40;99.90;;;;;;5067316;28;20190;-76
2022/09/30 01:19:50;;;;;;;1.50;1.45;;;12.40;99.90;;;;;;5015912;28;20939;-75
2022/09/30 01:22:31;;;;;;;1.50;1.40;;;12.40;99.90;;;;;;5065825;28;20199;-75
2022/09/30 01:25:33;;;;;;;1.45;1.45;;;12.40;99.90;;;;;;5066369;28;20225;-75
2022/09/30 01:28:29;;;;;;;1.67;1.58;;;12.40;99.90;;;;;;5062861;28;20197;-74
2022/09/30 01:31:21;;;;;;;1.38;1.33;;;12.40;99.90;;;;;;5065394;28;20993;-75
2022/09/30 01:33:59;;;;;;;1.27;1.27;;;12.40;99.90;;;;;;5064863;28;20726;-74
2022/09/30 01:36:38;;;;;;;1.67;1.52;;;12.30;99.90;;;;;;5068739;28;20191;-76
2022/09/30 01:39:19;;;;;;;1.33;1.33;;;12.30;99.90;;;;;;5072800;28;20226;-76
2022/09/30 01:41:55;;;;;;;1.40;1.40;;;12.30;99.90;;;;;;5071364;28;20233;-75
2022/09/30 01:44:33;;;;;;;1.35;1.35;;;12.30;99.90;;;;;;5069913;28;20295;-75
2022/09/30 01:47:08;;;;;;;1.35;1.35;;;12.30;99.90;;;;;;5068752;28;20755;-75
2022/09/30 01:49:42;;;;;;;1.40;1.40;;;12.30;99.90;;;;;;5063694;28;20296;-77
2022/09/30 01:52:14;;;;;;;1.40;1.30;;;12.30;99.90;;;;;;5069023;28;20198;-75
2022/09/30 01:54:47;;;;;;;1.50;1.40;;;12.30;99.90;;;;;;5069712;28;20217;-75
2022/09/30 01:57:21;;;;;;;1.30;1.30;;;12.30;99.90;;;;;;5070145;28;20198;-75
2022/09/30 01:59:53;;;;;;;1.60;1.50;;;12.30;99.90;;;;;;5069718;28;20233;-74
2022/09/30 02:02:25;;;;;;;1.27;1.20;;;12.20;99.90;;;;;;5066180;28;20205;-75
2022/09/30 02:04:56;;;;;;;1.02;1.02;;;12.30;99.90;;;;;;5068524;28;20230;-75
2022/09/30 02:07:28;;;;;;;1.25;1.25;;;12.20;99.90;;;;;;5069787;28;20201;-75
2022/09/30 02:09:59;;;;;;;1.10;1.10;;;12.20;99.90;;;;;;5069297;28;20294;-75
2022/09/30 02:12:31;;;;;;;1.38;1.38;;;12.30;99.90;;;;;;5069151;28;20198;-75
2022/09/30 02:15:02;;;;;;;1.33;1.23;;;12.30;99.90;;;;;;5067558;28;20206;-74
2022/09/30 02:17:36;;;;;;;1.63;1.52;;;12.30;99.90;;;;;;5070091;28;20657;-75
2022/09/30 02:20:08;;;;;;;1.20;1.20;;;12.30;99.90;;;;;;5067713;28;20222;-76
2022/09/30 02:22:42;;;;;;;1.13;1.10;;;12.30;99.90;;;;;;5066172;28;20190;-75
2022/09/30 02:25:12;;;;;;;1.35;1.30;;;12.30;99.90;;;;;;5069245;28;20263;-76
2022/09/30 02:27:45;;;;;;;1.17;1.17;;;12.30;99.90;;;;;;5068822;28;20198;-76
2022/09/30 02:30:13;;;;;;;1.35;1.30;;;12.30;99.90;;;;;;5068877;28;20213;-76
2022/09/30 02:32:47;;;;;;;1.17;1.17;;;12.30;99.90;;;;;;5066565;28;20205;-75
2022/09/30 02:35:23;;;;;;;1.23;1.23;;;12.30;99.90;;;;;;5067120;28;20206;-75
2022/09/30 02:37:54;;;;;;;1.20;1.20;;;12.30;99.90;;;;;;5079518;28;20194;-76
2022/09/30 02:40:27;;;;;;;1.00;1.00;;;12.30;99.90;;;;;;5069588;28;20230;-76
2022/09/30 02:42:54;;;;;;;1.10;1.10;;;12.30;99.90;;;;;;5063701;28;20206;-76
2022/09/30 02:45:23;;;;;;;1.50;1.40;;;12.30;99.90;;;;;;5067835;28;20268;-77
2022/09/30 02:48:11;;;;;;;1.38;1.27;;;12.20;99.90;;;;;;5064446;28;20195;-75
2022/09/30 02:50:44;;;;;;;1.58;1.48;;;12.20;99.90;;;;;;5070393;28;20776;-75
2022/09/30 02:53:22;;;;;;;1.20;1.20;;;12.20;99.90;;;;;;5066850;28;20191;-75
2022/09/30 02:56:06;;;;;;;1.40;1.30;;;12.20;99.90;;;;;;5067942;28;20194;-75
2022/09/30 02:58:35;;;;;;;1.67;1.20;;;12.20;99.90;;;;;;5064190;28;20222;-74
2022/09/30 03:01:03;;;;;;;1.55;1.45;;;12.10;99.90;;;;;;5068242;28;20218;-75
2022/09/30 03:03:35;;;;;;;1.40;1.30;;;12.10;99.90;;;;;;5060527;28;20221;-75
2022/09/30 03:06:02;;;;;;;1.33;1.33;;;12.10;99.90;;;;;;5065004;28;20236;-75
2022/09/30 03:08:29;;;;;;;1.38;1.35;;;12.10;99.90;;;;;;5067004;28;20213;-76
2022/09/30 03:10:56;;;;;;;1.30;1.30;;;12.10;99.90;;;;;;5066638;28;20214;-74
2022/09/30 03:13:51;;;;;;;1.30;1.20;;;12.10;99.90;;;;;;5067316;28;20225;-75
2022/09/30 03:16:28;;;;;;;1.08;1.08;;;12.10;99.90;;;;;;5067076;28;20240;-75
2022/09/30 03:19:15;;;;;;;1.45;1.30;;;12.10;99.90;;;;;;5067128;28;20226;-76
2022/09/30 03:22:00;;;;;;;1.40;1.30;;;12.10;99.90;;;;;;5064615;28;20218;-75
2022/09/30 03:24:42;;;;;;;1.00;1.00;;;12.10;99.90;;;;;;5064365;28;20591;-76
2022/09/30 03:27:22;;;;;;;1.30;1.30;;;12.10;99.90;;;;;;5068689;28;20198;-77
2022/09/30 03:30:02;;;;;;;1.17;1.17;;;12.10;99.90;;;;;;5068027;28;20727;-76
2022/09/30 03:32:47;;;;;;;1.20;1.20;;;12.10;99.90;;;;;;5070571;28;20198;-77
2022/09/30 03:35:21;;;;;;;1.50;1.40;;;12.10;99.90;;;;;;5072430;28;20206;-75
2022/09/30 03:37:59;;;;;;;1.20;1.20;;;12.10;99.90;;;;;;5067212;28;20247;-73
2022/09/30 03:40:43;;;;;;;1.10;1.10;;;12.10;99.90;;;;;;5066225;28;20309;-75
2022/09/30 03:43:20;;;;;;;1.20;1.20;;;12.00;99.90;;;;;;5067088;28;20788;-75
2022/09/30 03:45:54;;;;;;;1.30;1.30;;;12.00;99.90;;;;;;5068535;28;20206;-74
2022/09/30 03:48:24;;;;;;;1.35;1.27;;;12.00;99.90;;;;;;5067066;28;20229;-75
2022/09/30 03:50:53;;;;;;;1.13;1.13;;;12.00;99.90;;;;;;5066516;28;20593;-75
2022/09/30 03:53:20;;;;;;;1.30;1.25;;;12.00;99.90;;;;;;5065194;28;20222;-75
2022/09/30 03:55:49;;;;;;;1.10;1.10;;;12.00;99.90;;;;;;5066541;28;20225;-75
2022/09/30 03:58:17;;;;;;;1.05;1.05;;;12.00;99.90;;;;;;5067847;28;20222;-76
2022/09/30 04:00:49;;;;;;;1.25;1.25;;;12.00;99.90;;;;;;5064880;28;20688;-75
2022/09/30 04:03:17;;;;;;;1.10;1.10;;;12.00;99.90;;;;;;5065384;28;20297;-75
2022/09/30 04:05:44;;;;;;;1.25;1.25;;;12.00;99.90;;;;;;5070261;28;20663;-75
2022/09/30 04:08:12;;;;;;;1.10;1.10;;;12.00;99.90;;;;;;5066748;28;20201;-75
2022/09/30 04:10:41;;;;;;;1.20;1.20;;;12.00;99.90;;;;;;5066243;28;20218;-75
2022/09/30 04:13:08;;;;;;;1.85;1.38;;;12.00;99.90;;;;;;5064385;28;20222;-75
2022/09/30 04:15:36;;;;;;;1.05;1.05;;;12.00;99.90;;;;;;5066729;28;20194;-76
2022/09/30 04:18:03;;;;;;;1.40;1.20;;;12.00;99.90;;;;;;5066633;28;20190;-76
2022/09/30 04:20:30;;;;;;;1.25;1.25;;;11.90;99.90;;;;;;5064095;28;20222;-76
2022/09/30 04:22:58;;;;;;;1.33;1.23;;;12.00;99.90;;;;;;5064931;28;20206;-76
2022/09/30 04:25:27;;;;;;;1.30;1.20;;;11.90;99.90;;;;;;5068010;28;20249;-75
2022/09/30 04:27:55;;;;;;;1.40;1.30;;;12.00;99.90;;;;;;5069384;28;20260;-75
2022/09/30 04:30:22;;;;;;;1.20;1.20;;;11.90;99.90;;;;;;5076217;28;20221;-76
2022/09/30 04:32:49;;;;;;;2.17;1.33;;;11.90;99.90;;;;;;5068226;28;20263;-75
2022/09/30 04:35:16;;;;;;;1.10;1.10;;;12.00;99.90;;;;;;5066933;28;20279;-75
2022/09/30 04:37:44;;;;;;;1.20;1.20;;;12.00;99.90;;;;;;5065634;28;20264;-75
2022/09/30 04:40:11;;;;;;;1.40;1.35;;;12.00;99.90;;;;;;5064371;28;20245;-74
2022/09/30 04:42:41;;;;;;;1.10;1.10;;;12.00;99.90;;;;;;5066648;28;20210;-75
2022/09/30 04:45:10;;;;;;;1.52;1.42;;;12.00;99.90;;;;;;5063898;28;20224;-75
2022/09/30 04:47:37;;;;;;;1.48;1.38;;;12.00;99.90;;;;;;5066349;28;20676;-75
2022/09/30 04:50:05;;;;;;;1.05;1.05;;;12.00;99.90;;;;;;5067389;28;20224;-73
2022/09/30 04:52:32;;;;;;;1.50;1.40;;;12.00;99.90;;;;;;5065048;28;20202;-75
2022/09/30 04:54:59;;;;;;;1.80;1.70;;;12.00;99.90;;;;;;5064719;28;20218;-75
2022/09/30 04:57:26;;;;;;;2.10;1.90;;;11.90;99.90;;;;;;5066781;28;20201;-76
2022/09/30 04:59:54;;;;;;;2.03;1.92;;;11.90;99.90;;;;;;5067601;28;20228;-75
2022/09/30 05:02:21;;;;;;;2.10;2.00;;;11.90;99.90;;;;;;5064535;28;20709;-75
2022/09/30 05:04:48;;;;;;;2.17;1.98;;;11.80;99.90;;;;;;5064561;28;20222;-80
2022/09/30 05:07:15;;;;;;;2.22;2.13;;;11.80;99.90;;;;;;5067402;28;20210;-75
2022/09/30 05:09:43;;;;;;;2.03;1.92;;;11.80;99.90;;;;;;5064619;28;20245;-75
2022/09/30 05:12:10;;;;;;;2.17;2.08;;;11.90;99.90;;;;;;5069595;28;20202;-74
2022/09/30 05:14:37;;;;;;;1.90;1.80;;;11.90;99.90;;;;;;5070957;28;20230;-75
2022/09/30 05:17:05;;;;;;;1.75;1.65;;;11.90;99.90;;;;;;5068361;28;20209;-75
2022/09/30 05:19:32;;;;;;;1.73;1.63;;;11.90;99.90;;;;;;5065906;28;20280;-75
2022/09/30 05:21:59;;;;;;;1.38;1.38;;;11.90;99.90;;;;;;5071629;28;20194;-75
2022/09/30 05:24:27;;;;;;;1.30;1.30;;;11.90;99.90;;;;;;5068989;28;20218;-75
2022/09/30 05:26:54;;;;;;;1.60;1.50;;;11.90;99.90;;;;;;5068527;28;20226;-75
2022/09/30 05:29:21;;;;;;;1.88;1.40;;;11.90;99.90;;;;;;5070108;28;20921;-75
2022/09/30 05:31:49;;;;;;;1.45;1.45;;;11.90;99.90;;;;;;5069804;28;20198;-75
2022/09/30 05:34:17;;;;;;;1.35;1.35;;;11.90;99.90;;;;;;5068126;28;20267;-76
2022/09/30 05:36:44;;;;;;;1.60;1.50;;;11.90;99.90;;;;;;5069259;28;20240;-74
2022/09/30 05:39:12;;;;;;;1.40;1.40;;;12.00;99.90;;;;;;5068438;28;20225;-76
2022/09/30 05:41:39;;;;;;;1.38;1.38;;;11.90;99.90;;;;;;5069800;28;20610;-76
2022/09/30 05:44:07;;;;;;;1.20;1.20;;;11.90;99.90;;;;;;5070377;28;20218;-76
2022/09/30 05:46:34;;;;;;;1.80;1.70;;;12.00;99.90;;;;;;5070590;28;20275;-76
2022/09/30 05:49:01;;;;;;;1.40;1.40;;;12.00;99.90;;;;;;5067786;28;20252;-75
2022/09/30 05:51:30;;;;;;;1.35;1.25;;;12.00;99.90;;;;;;5068572;28;20215;-76
2022/09/30 05:53:57;;;;;;;1.40;1.40;;;12.00;99.90;;;;;;5068629;28;20679;-75
2022/09/30 05:56:24;;;;;;;1.25;1.25;;;12.00;99.90;;;;;;5069975;28;20202;-76
2022/09/30 05:58:51;;;;;;;1.65;1.30;;;12.00;99.90;;;;;;5070641;28;20651;-75
2022/09/30 06:01:18;;;;;;;1.30;1.20;;;12.00;99.90;;;;;;5066108;28;20233;-77
2022/09/30 06:03:46;;;;;;;1.30;1.30;;;12.00;99.90;;;;;;5067244;28;20218;-75
2022/09/30 06:06:14;;;;;;;1.50;1.45;;;12.00;99.90;;;;;;5067491;28;20280;-75
2022/09/30 06:08:43;;;;;;;1.30;1.30;;;12.00;99.90;;;;;;5068915;28;20218;-76
2022/09/30 06:11:12;;;;;;;1.45;1.40;;;12.00;99.90;;;;;;5068689;28;20744;-75
2022/09/30 06:13:40;;;;;;;1.52;1.42;;;12.00;99.90;;;;;;5069920;28;20218;-76
2022/09/30 06:16:08;;;;;;;1.73;1.63;;;12.00;99.90;;;;;;5067853;28;20206;-77
2022/09/30 06:18:37;;;;;;;1.60;1.58;;;12.10;99.90;;;;;;5066675;28;20218;-76
2022/09/30 06:21:05;;;;;;;1.20;1.20;;;12.10;99.90;;;;;;5066073;28;20245;-75
2022/09/30 06:23:34;;;;;;;1.52;1.50;;;12.20;99.90;;;;;;5073819;28;20213;-75
2022/09/30 06:26:04;;;;;;;1.30;1.30;;;12.20;99.90;;;;;;5075260;28;20743;-75
2022/09/30 06:28:34;;;;;;;1.50;1.50;;;12.30;99.90;;;;;;5066190;28;20213;-74
2022/09/30 06:31:01;;;;;;;3.70;1.27;;;12.40;99.90;;;;;;5066800;28;20214;-75
2022/09/30 06:33:28;;;;;;;1.30;1.30;;;12.40;99.90;;;;;;5069167;28;20214;-75
2022/09/30 06:35:55;;;;;;;1.50;1.50;;;12.60;99.90;;;;;;5069500;28;20251;-76
2022/09/30 06:38:22;;;;;;;1.38;1.38;;;12.60;99.90;;;;;;5067471;28;20218;-75
2022/09/30 06:40:50;;;;;;;1.67;1.58;;;12.70;99.90;;;;;;5070430;28;20219;-76
2022/09/30 06:43:19;;;;;;;1.65;1.55;;;12.70;99.90;;;;;;5068976;28;20218;-75
2022/09/30 06:45:50;;;;;;;1.83;1.73;;;12.70;99.90;;;;;;5069602;28;20218;-76
2022/09/30 06:48:18;;;;;;;1.73;1.63;;;12.80;99.90;;;;;;5065917;28;20225;-75
2022/09/30 06:50:45;;;;;;;1.77;1.67;;;12.90;99.90;;;;;;5068088;28;20221;-76
2022/09/30 06:53:13;;;;;;;1.90;1.63;;;13.00;99.90;;;;;;5067663;28;20718;-76
2022/09/30 06:55:40;;;;;;;1.70;1.60;;;13.00;99.90;;;;;;5069560;28;20202;-77
2022/09/30 06:58:15;;;;;;;2.05;1.95;;;13.00;99.90;;;;;;5069180;28;20206;-75
2022/09/30 07:00:44;;;;;;;1.70;1.60;;;13.00;99.90;;;;;;5066944;28;20666;-76
2022/09/30 07:03:23;;;;;;;2.17;1.98;;;13.00;99.90;;;;;;5067884;28;20191;-75
2022/09/30 07:05:57;;;;;;;2.92;1.90;;;13.10;99.90;;;;;;5067443;28;20275;-75
2022/09/30 07:08:27;;;;;;;2.35;2.08;;;13.10;99.90;;;;;;5066806;28;20354;-75
2022/09/30 07:10:55;;;;;;;1.95;1.85;;;13.10;99.90;;;;;;5065459;28;20313;-75
2022/09/30 07:13:22;;;;;;;2.00;1.75;;;13.10;99.90;;;;;;5068724;28;20222;-75
2022/09/30 07:15:52;;;;;;;2.38;2.28;;;13.00;99.90;;;;;;5068742;28;20621;-76
2022/09/30 07:18:20;;;;;;;1.70;1.60;;;12.90;99.90;;;;;;5068228;28;20222;-75
2022/09/30 07:20:51;;;;;;;1.60;1.50;;;12.90;99.90;;;;;;5075915;28;20225;-74
2022/09/30 07:23:18;;;;;;;1.67;1.58;;;12.90;99.90;;;;;;5073019;28;20225;-76
2022/09/30 07:25:53;;;;;;;2.35;1.65;;;13.00;99.90;;;;;;5067278;28;20616;-75
2022/09/30 07:28:20;;;;;;;1.60;1.50;;;13.10;99.90;;;;;;5064092;28;20602;-76
2022/09/30 07:30:47;;;;;;;1.38;1.38;;;13.10;99.90;;;;;;5068058;28;20252;-74
2022/09/30 07:33:16;;;;;;;1.90;1.80;;;13.00;99.90;;;;;;5064148;28;20234;-75
2022/09/30 07:35:51;;;;;;;2.05;1.95;;;13.00;99.90;;;;;;5068328;28;20230;-75
2022/09/30 07:38:19;;;;;;;2.13;2.03;;;12.90;99.90;;;;;;5068082;28;20301;-75
2022/09/30 07:40:58;;;;;;;1.90;1.80;;;12.90;99.90;;;;;;5067150;28;20222;-77
2022/09/30 07:43:26;;;;;;;1.88;1.77;;;12.80;99.90;;;;;;5068061;28;20253;-75
2022/09/30 07:45:54;;;;;;;1.92;1.77;;;12.70;99.90;;;;;;5066769;28;20720;-75
2022/09/30 07:48:46;;;;;;;1.70;1.60;;;12.70;99.90;;;;;;5064714;28;20234;-76
2022/09/30 07:51:16;;;;;;;1.80;1.70;;;12.60;99.90;;;;;;5067249;28;20218;-75
2022/09/30 07:53:44;;;;;;;1.50;1.40;;;12.70;99.90;;;;;;5067315;28;20222;-74
2022/09/30 07:56:12;;;;;;;1.80;1.70;;;12.70;99.90;;;;;;5068274;28;20194;-77
2022/09/30 07:58:40;;;;;;;1.73;1.63;;;12.70;99.90;;;;;;5066528;28;20222;-74
2022/09/30 08:01:07;;;;;;;1.60;1.52;;;12.70;99.90;;;;;;5068279;28;20287;-76
2022/09/30 08:03:38;;;;;;;1.60;1.50;;;12.70;99.90;;;;;;5066687;28;20214;-77
2022/09/30 08:06:07;;;;;;;1.60;1.50;;;12.80;99.90;;;;;;5067317;28;20305;-75
2022/09/30 08:08:35;;;;;;;2.00;1.90;;;12.80;99.90;;;;;;5067846;28;20291;-75
2022/09/30 08:11:02;;;;;;;1.70;1.60;;;12.80;99.90;;;;;;5067639;28;20222;-75
2022/09/30 08:13:29;;;;;;;1.63;1.52;;;12.80;99.90;;;;;;5063490;28;20214;-76
2022/09/30 08:15:56;;;;;;;1.60;1.50;;;12.80;99.90;;;;;;5068517;28;20328;-75
2022/09/30 08:18:24;;;;;;;1.38;1.27;;;12.80;99.90;;;;;;5075229;28;20233;-75
2022/09/30 08:20:53;;;;;;;1.30;1.20;;;12.80;99.90;;;;;;5065996;28;20219;-77
2022/09/30 08:23:21;;;;;;;1.50;1.40;;;12.80;99.90;;;;;;5066043;28;20245;-76
2022/09/30 08:25:48;;;;;;;1.50;1.50;;;12.90;99.90;;;;;;5067979;28;20209;-76
2022/09/30 08:28:16;;;;;;;1.45;1.35;;;12.90;99.90;;;;;;5067795;28;20225;-75
2022/09/30 08:30:43;;;;;;;1.85;1.20;;;12.90;99.90;;;;;;5067674;28;20221;-75
2022/09/30 08:33:10;;;;;;;1.25;1.20;;;12.90;99.90;;;;;;5067029;28;20691;-76
2022/09/30 08:35:37;;;;;;;1.20;1.20;;;13.00;99.90;;;;;;5068076;28;20202;-75
2022/09/30 08:38:06;;;;;;;1.30;1.27;;;13.10;99.90;;;;;;5067335;28;20187;-75
2022/09/30 08:40:36;;;;;;;1.20;1.20;;;13.20;99.90;;;;;;5067803;28;20804;-76
2022/09/30 08:43:27;;;;;;;1.45;1.35;;;13.20;99.90;;;;;;5067027;28;20195;-76
2022/09/30 08:46:03;;;;;;;1.92;1.60;;;13.20;99.90;;;;;;5068355;28;20206;-75
2022/09/30 08:48:41;;;;;;;1.25;1.25;;;13.20;99.90;;;;;;5067798;28;20248;-76
2022/09/30 08:51:23;;;;;;;1.50;1.40;;;13.20;99.90;;;;;;5071823;28;20213;-75
2022/09/30 08:53:52;;;;;;;1.25;1.10;;;13.30;99.90;;;;;;5070128;28;20225;-75
2022/09/30 08:56:24;;;;;;;1.38;1.27;;;13.40;99.90;;;;;;5072717;28;20264;-75
2022/09/30 08:58:55;;;;;;;1.30;1.30;;;13.50;99.90;;;;;;5070613;28;20222;-75
2022/09/30 09:01:30;;;;;;;1.45;1.38;;;13.50;99.90;;;;;;5072274;28;20299;-75
2022/09/30 09:03:58;;;;;;;1.50;1.40;;;13.50;99.90;;;;;;5071382;28;20217;-75
2022/09/30 09:06:31;;;;;;;1.30;1.30;;;13.60;99.90;;;;;;5071675;28;20221;-75
2022/09/30 09:09:25;;;;;;;1.60;1.50;;;13.60;99.90;;;;;;5070274;28;20217;-76
2022/09/30 09:12:12;;;;;;;1.52;1.45;;;13.60;99.90;;;;;;5072827;28;20228;-75
2022/09/30 09:14:53;;;;;;;1.67;1.58;;;13.60;99.90;;;;;;5080841;28;20228;-77
2022/09/30 09:17:38;;;;;;;1.63;1.52;;;13.70;99.90;;;;;;5071104;28;20191;-74
2022/09/30 09:20:14;;;;;;;1.40;1.40;;;13.70;99.90;;;;;;5071330;28;20301;-75
2022/09/30 09:22:43;;;;;;;1.63;1.52;;;13.70;99.90;;;;;;5072804;28;20276;-75
2022/09/30 09:25:15;;;;;;;2.00;1.90;;;13.80;99.90;;;;;;5070999;28;20218;-76
2022/09/30 09:27:49;;;;;;;1.75;1.65;;;13.80;99.90;;;;;;5071519;28;20226;-75
2022/09/30 09:30:20;;;;;;;2.08;1.40;;;13.70;99.90;;;;;;5069222;28;20710;-75
2022/09/30 09:32:52;;;;;;;1.70;1.60;;;13.70;99.90;;;;;;5070678;28;20263;-76
2022/09/30 09:35:32;;;;;;;1.67;1.50;;;13.80;99.90;;;;;;5071043;28;20222;-76
2022/09/30 09:41:06;;;;;;;1.73;1.63;;;14.00;99.90;;;;;;5061536;28;20351;-76
2022/09/30 09:43:48;;;;;;;1.70;1.60;;;14.00;99.90;;;;;;5067785;28;20800;-75
2022/09/30 09:46:22;;;;;;;2.30;1.55;;;14.00;99.90;;;;;;5071181;28;20687;-75
2022/09/30 09:48:50;;;;;;;2.05;1.48;;;14.00;99.90;;;;;;5069575;28;20225;-75
2022/09/30 09:51:24;;;;;;;1.80;1.70;;;14.10;99.90;;;;;;5071162;28;20887;-75
2022/09/30 09:53:56;;;;;;;1.70;1.60;;;14.20;99.90;;;;;;5070127;28;20282;-75
2022/09/30 09:56:29;;;;;;;1.58;1.48;;;14.30;99.90;;;;;;5072303;28;20195;-76
2022/09/30 09:59:12;;;;;;;1.60;1.50;;;14.40;99.90;;;;;;5070537;28;20214;-76
2022/09/30 10:01:41;;;;;;;1.08;1.08;;;14.50;99.90;;;;;;5068771;28;20301;-76
2022/09/30 10:04:15;;;;;;;1.30;1.30;;;14.70;99.90;;;;;;5073738;28;20218;-78
2022/09/30 10:06:49;;;;;;;1.40;1.30;;;14.80;99.90;;;;;;5070366;28;20812;-76
2022/09/30 10:09:28;;;;;;;1.50;1.40;;;15.00;99.90;;;;;;5071798;28;20220;-76
2022/09/30 10:12:25;;;;;;;1.60;1.50;;;15.30;99.90;;;;;;5082641;28;20227;-75
2022/09/30 10:14:58;;;;;;;1.52;1.42;;;15.60;99.90;;;;;;5070129;28;20217;-76
2022/09/30 10:17:29;;;;;;;1.50;1.40;;;15.80;99.90;;;;;;5070762;28;20203;-76
2022/09/30 10:20:01;;;;;;;1.10;1.10;;;15.80;99.90;;;;;;5072373;28;20309;-75
2022/09/30 10:22:30;;;;;;;1.50;1.40;;;15.80;99.90;;;;;;5070348;28;20209;-76
2022/09/30 10:25:19;;;;;;;1.50;1.40;;;15.80;99.90;;;;;;5070185;28;20301;-75
2022/09/30 10:27:56;;;;;;;1.40;1.20;;;15.70;99.90;;;;;;5068097;28;20225;-76
2022/09/30 10:30:45;;;;;;;0.90;0.90;;;15.70;99.90;;;;;;5070257;28;20268;-76
2022/09/30 10:33:18;;;;;;;1.15;1.15;;;15.80;99.90;;;;;;5062975;28;20264;-76
2022/09/30 10:35:55;;;;;;;1.20;1.20;;;15.90;99.90;;;;;;5066887;28;20205;-75
2022/09/30 10:38:24;;;;;;;2.45;1.27;;;16.00;99.90;;;;;;5066997;28;20226;-76
2022/09/30 10:40:52;;;;;;;1.00;0.85;;;16.10;99.90;;;;;;5072209;28;20291;-76
2022/09/30 10:43:26;;;;;;;1.00;1.00;;;16.10;99.90;;;;;;5069437;28;20275;-76
2022/09/30 10:45:54;;;;;;;1.23;1.13;;;16.20;99.90;;;;;;5069929;28;20203;-76
2022/09/30 10:48:25;;;;;;;1.30;1.20;;;16.20;99.90;;;;;;5065202;28;20226;-75
2022/09/30 10:50:53;;;;;;;1.17;1.10;;;16.20;99.90;;;;;;5071292;28;20764;-76
2022/09/30 10:53:24;;;;;;;1.15;1.08;;;16.20;99.90;;;;;;5068556;28;20228;-76
2022/09/30 10:55:53;;;;;;;1.10;1.10;;;16.30;99.90;;;;;;5066510;28;20247;-76
2022/09/30 10:58:42;;;;;;;1.27;1.27;;;16.40;99.90;;;;;;5069084;28;20577;-77
2022/09/30 11:01:16;;;;;;;1.38;1.27;;;16.60;99.90;;;;;;5066697;28;20623;-75
2022/09/30 11:03:53;;;;;;;1.17;1.17;;;16.50;99.90;;;;;;5068657;28;20222;-75
2022/09/30 11:06:23;;;;;;;1.17;1.08;;;16.40;99.90;;;;;;5067900;28;20201;-75
2022/09/30 11:08:57;;;;;;;2.47;1.20;;;16.40;99.90;;;;;;5080324;28;20250;-75
2022/09/30 11:11:28;;;;;;;1.40;1.30;;;16.30;99.90;;;;;;5067341;28;21037;-77
2022/09/30 11:14:03;;;;;;;1.95;1.40;;;16.20;99.90;;;;;;5070200;28;20245;-76
2022/09/30 11:16:40;;;;;;;2.00;1.30;;;16.00;99.90;;;;;;5067332;28;20208;-75
2022/09/30 11:19:17;;;;;;;1.20;1.10;;;15.80;99.90;;;;;;5069829;28;20222;-75
2022/09/30 11:21:49;;;;;;;1.33;1.10;;;15.80;99.90;;;;;;5066892;28;20225;-77
2022/09/30 11:24:26;;;;;;;1.23;1.17;;;15.70;99.90;;;;;;5069926;28;20228;-76
2022/09/30 11:27:04;;;;;;;1.38;1.30;;;15.80;99.90;;;;;;5067055;28;20284;-75
2022/09/30 11:29:49;;;;;;;1.45;1.35;;;15.70;99.90;;;;;;5068848;28;20225;-75
2022/09/30 11:32:27;;;;;;;1.50;1.40;;;15.80;99.90;;;;;;5067729;28;20217;-76
2022/09/30 11:35:04;;;;;;;1.00;1.00;;;16.00;99.90;;;;;;5068430;28;20656;-76
2022/09/30 11:37:44;;;;;;;1.10;1.10;;;16.10;99.90;;;;;;5070133;28;20217;-75
2022/09/30 11:40:39;;;;;;;1.30;1.20;;;16.10;99.90;;;;;;5071566;28;20214;-75
2022/09/30 11:43:16;;;;;;;1.20;1.20;;;16.00;99.90;;;;;;5069975;28;20187;-76
2022/09/30 11:46:03;;;;;;;1.23;1.13;;;15.90;99.90;;;;;;5072484;28;20197;-76
2022/09/30 11:48:40;;;;;;;2.95;1.23;;;15.90;99.90;;;;;;5065298;28;20236;-75
2022/09/30 11:51:19;;;;;;;1.10;1.10;;;16.10;99.90;;;;;;5067766;28;20222;-76
2022/09/30 11:53:56;;;;;;;1.20;1.10;;;16.30;99.90;;;;;;5068771;28;20229;-75
2022/09/30 11:56:38;;;;;;;0.90;0.90;;;16.50;99.90;;;;;;5068679;28;20194;-76
2022/09/30 11:59:15;;;;;;;1.27;1.27;;;16.60;99.90;;;;;;5067397;28;20218;-75
2022/09/30 12:01:46;;;;;;;1.00;1.00;;;16.60;99.90;;;;;;5069938;28;20217;-75
2022/09/30 12:04:17;;;;;;;1.50;1.40;;;16.60;99.90;;;;;;5070779;28;20210;-77
2022/09/30 12:06:49;;;;;;;1.20;1.10;;;16.60;99.90;;;;;;5072554;28;20289;-75
2022/09/30 12:09:21;;;;;;;1.17;1.08;;;16.50;99.90;;;;;;5063426;28;20269;-77
2022/09/30 12:11:53;;;;;;;1.27;1.27;;;16.40;99.90;;;;;;5068089;28;20222;-75
2022/09/30 12:14:26;;;;;;;1.20;1.20;;;16.50;99.90;;;;;;5068059;28;20219;-73
2022/09/30 12:16:56;;;;;;;1.17;1.17;;;16.50;99.90;;;;;;5069049;28;20661;-76
2022/09/30 12:19:28;;;;;;;1.23;1.23;;;16.40;99.90;;;;;;5064789;28;20736;-76
2022/09/30 12:22:01;;;;;;;0.90;0.90;;;16.30;99.90;;;;;;5068372;28;20201;-75
2022/09/30 12:24:35;;;;;;;0.93;0.93;;;16.20;99.90;;;;;;5067748;28;20222;-75
2022/09/30 12:27:03;;;;;;;1.08;1.08;;;16.10;99.90;;;;;;5068056;28;20852;-75
2022/09/30 12:32:49;;;;;;;1.23;1.13;;;16.00;99.90;;;;;;5066009;28;20320;-76
2022/09/30 12:35:38;;;;;;;1.20;1.10;;;16.00;99.90;;;;;;5064936;28;20222;-76
2022/09/30 12:38:19;;;;;;;1.00;1.00;;;16.00;99.90;;;;;;5065886;28;20197;-77
2022/09/30 12:41:02;;;;;;;1.20;1.10;;;16.00;99.90;;;;;;5066418;28;20688;-76
2022/09/30 12:44:02;;;;;;;1.10;1.10;;;15.90;99.90;;;;;;5067081;28;20232;-76
2022/09/30 12:46:54;;;;;;;1.00;1.00;;;15.90;99.90;;;;;;5067111;28;20198;-76
2022/09/30 12:49:27;;;;;;;0.85;0.85;;;15.80;99.90;;;;;;5067105;28;20623;-75
2022/09/30 12:51:58;;;;;;;1.70;1.60;;;15.80;99.90;;;;;;5070327;28;20206;-75
2022/09/30 12:54:28;;;;;;;1.70;1.60;;;15.80;99.90;;;;;;5066215;28;20285;-73
2022/09/30 12:56:59;;;;;;;1.98;1.65;;;15.70;99.90;;;;;;5067189;28;20205;-75
2022/09/30 12:59:30;;;;;;;1.35;1.33;;;15.60;99.90;;;;;;5069494;28;20218;-76
2022/09/30 13:01:58;;;;;;;1.50;1.40;;;15.60;99.90;;;;;;5070242;28;20199;-75
2022/09/30 13:04:35;;;;;;;1.20;1.20;;;15.60;99.90;;;;;;5068334;28;20707;-75
2022/09/30 13:07:09;;;;;;;1.40;1.30;;;15.50;99.90;;;;;;5067390;28;20202;-76
2022/09/30 13:09:37;;;;;;;1.15;1.15;;;15.50;99.90;;;;;;5067288;28;20255;-76
2022/09/30 13:12:16;;;;;;;1.42;1.30;;;15.60;99.90;;;;;;5070212;28;20195;-76
2022/09/30 13:14:44;;;;;;;1.20;1.10;;;15.60;99.90;;;;;;5068375;28;20225;-75
2022/09/30 13:17:27;;;;;;;1.45;1.42;;;15.50;99.90;;;;;;5067501;28;20675;-76
2022/09/30 13:19:57;;;;;;;1.00;1.00;;;15.40;99.90;;;;;;5067236;28;20222;-75
2022/09/30 13:22:55;;;;;;;1.38;1.20;;;15.40;99.90;;;;;;5068071;28;20207;-76